모두
Camfield Stn Airport CFI 기상
There is no TAF data available at CFI or any nearby airports.
There is no METAR data available at CFI. Showing METAR data for YVRD (22 mi 서).
최근 YVRD METAR 이력(CFI에 대한 데이터 없음)
| Date | Time (ACST) | Flight Rules | Wind Dir. | Speed | Type | Height AGL (ft) | Visibility | Temp (°C) | Temp (°F) | Dew Point (°C) | Dew Point (°F) | Rel. Humid. | Pressure | Density Altitude | Remarks |
|---|---|---|---|---|---|---|---|---|---|---|---|---|---|---|---|
| 04-5월 | 10:30 | n/a | 70° | 4 kt | Missing | 31° | 87° | 21° | 69° | 55% | 1014 mb | 2,186 ft | |||
| 04-5월 | 09:30 | n/a | 60° | 2 kt | Missing | 28° | 82° | 20° | 68° | 62% | 1014 mb | 1,826 ft | |||
| 04-5월 | 08:30 | n/a | 180° | 3 kt | Missing | 25° | 77° | 20° | 68° | 74% | 1013 mb | 1,495 ft | |||
| 04-5월 | 07:30 | n/a | 260° | 1 kt | Missing | 21° | 69° | 19° | 66° | 88% | 1013 mb | 1,015 ft | |||
| 04-5월 | 06:30 | n/a | 200° | 3 kt | Missing | 21° | 69° | 19° | 66° | 88% | 1012 mb | 1,045 ft | |||
| 04-5월 | 05:30 | n/a | Calm | Missing | 21° | 69° | 19° | 66° | 88% | 1012 mb | 1,045 ft | ||||
| 04-5월 | 04:30 | n/a | Calm | Missing | 21° | 69° | 19° | 66° | 88% | 1012 mb | 1,045 ft | ||||
| 04-5월 | 03:30 | n/a | Calm | Missing | 22° | 71° | 20° | 68° | 88% | 1012 mb | 1,165 ft | ||||
| 04-5월 | 02:30 | n/a | Calm | Missing | 22° | 71° | 20° | 68° | 88% | 1012 mb | 1,165 ft | ||||
| 04-5월 | 01:30 | n/a | Calm | Missing | 22° | 71° | 20° | 68° | 88% | 1012 mb | 1,165 ft | ||||
| 04-5월 | 00:30 | n/a | Calm | Missing | 23° | 73° | 20° | 68° | 83% | 1012 mb | 1,285 ft | ||||
| 03-5월 | 23:30 | n/a | Calm | Missing | 23° | 73° | 20° | 68° | 83% | 1013 mb | 1,255 ft | ||||
| 03-5월 | 22:30 | n/a | Calm | Missing | 24° | 75° | 20° | 68° | 78% | 1013 mb | 1,375 ft | ||||
| 03-5월 | 21:30 | n/a | Calm | Missing | 25° | 77° | 21° | 69° | 79% | 1012 mb | 1,525 ft | ||||
| 03-5월 | 20:30 | n/a | 70° | 2 kt | Missing | 27° | 80° | 20° | 68° | 66% | 1012 mb | 1,765 ft | |||
| 03-5월 | 19:30 | n/a | Calm | Missing | 27° | 80° | 20° | 68° | 66% | 1011 mb | 1,794 ft | ||||
| 03-5월 | 18:30 | n/a | Calm | Missing | 31° | 87° | 19° | 66° | 49% | 1010 mb | 2,304 ft | ||||
| 03-5월 | 17:30 | n/a | 50° | 5 kt | Missing | 34° | 93° | 18° | 64° | 39% | 1010 mb | 2,664 ft | |||
| 03-5월 | 16:30 | n/a | 70° | 4 kt | Missing | 35° | 95° | 18° | 64° | 37% | 1010 mb | 2,784 ft | |||
| 03-5월 | 15:30 | n/a | 50° | 6 kt | Missing | 35° | 95° | 19° | 66° | 39% | 1010 mb | 2,784 ft | |||
| 03-5월 | 14:30 | n/a | 30° | 4 kt | Missing | 35° | 95° | 19° | 66° | 39% | 1011 mb | 2,754 ft | |||
| 03-5월 | 13:30 | n/a | 80° | 5 kt | Missing | 34° | 93° | 20° | 68° | 44% | 1011 mb | 2,634 ft | |||
| 03-5월 | 12:30 | n/a | 50° | 6 kt | Missing | 33° | 91° | 21° | 69° | 49% | 1012 mb | 2,485 ft | |||
| 03-5월 | 11:30 | n/a | 60° | 7 kt | Missing | 32° | 89° | 21° | 69° | 52% | 1013 mb | 2,335 ft |
로그인
| 귀하의 브라우저는 지원되지 않습니다.. 브라우저를 업그레이드하세요 |
